Terminal Aerodrome Forecast
Issued by NWS

Home | Current Version | Previous Version | Text Only | Print | Product List | Glossary On
Versions: 1 2 3 4 5 6 7 8 9 10 11 12 13 14 15 16 17 18 19
000
FTUS43 KMPX 270520
TAFAXN
TAF
KAXN 270520Z 2706/2806 10007KT P6SM OVC250
     FM271600 10009KT P6SM VCSH BKN050 OVC100 PROB30 2716/2720 5SM
      -SHRA OVC030=

USA.gov is the U.S. government's official web portal to all federal, state and local government web resources and services.